createdAt,value
2022-08-20T00:00:14.385Z,100180.47
2022-08-20T00:05:21.556Z,100131.63
2022-08-20T00:10:24.068Z,100155.38
2022-08-20T00:15:30.899Z,100157.63
2022-08-20T00:20:36.848Z,100162.00
2022-08-20T00:25:41.436Z,100178.25
2022-08-20T00:30:45.149Z,100180.59
2022-08-20T00:35:52.083Z,100159.41
2022-08-20T00:40:57.502Z,100155.06
2022-08-20T00:46:03.160Z,100158.53
2022-08-20T00:51:11.189Z,100158.03
2022-08-20T00:56:13.932Z,100163.44
2022-08-20T01:01:16.408Z,100169.00
2022-08-20T01:06:18.909Z,100186.00
2022-08-20T01:11:23.047Z,100183.22
2022-08-20T01:16:31.571Z,100172.50
2022-08-20T01:21:34.457Z,100166.97
2022-08-20T01:26:40.339Z,100172.19
2022-08-20T01:31:43.291Z,100166.94
2022-08-20T01:36:51.626Z,100166.97
2022-08-20T01:41:57.184Z,100172.25
2022-08-20T01:47:11.004Z,100176.41
2022-08-20T01:52:29.726Z,100185.59
2022-08-20T01:57:32.451Z,100185.78
2022-08-20T02:02:34.965Z,100176.25
2022-08-20T02:07:37.826Z,100179.75
2022-08-20T02:12:40.305Z,100192.00
2022-08-20T02:17:43.601Z,100204.75
2022-08-20T02:22:53.175Z,100224.47
2022-08-20T02:28:02.589Z,100227.09
2022-08-20T02:33:06.389Z,100228.03
2022-08-20T02:38:10.923Z,100234.16
2022-08-20T02:43:15.002Z,100245.75
2022-08-20T02:48:21.109Z,100241.78
2022-08-20T02:53:28.173Z,100244.38
2022-08-20T02:58:30.669Z,100251.81
2022-08-20T03:03:33.379Z,100244.16
2022-08-20T03:08:36.364Z,100237.28
2022-08-20T03:13:38.954Z,100245.28
2022-08-20T03:18:45.309Z,100242.38
2022-08-20T03:23:47.905Z,100247.78
2022-08-20T03:28:50.354Z,100248.50
2022-08-20T03:33:53.823Z,100249.19
2022-08-20T03:38:58.062Z,100250.63
2022-08-20T03:44:00.642Z,100226.47
2022-08-20T03:49:03.576Z,100231.69
2022-08-20T03:54:06.673Z,100236.13
2022-08-20T03:59:09.839Z,100214.78
2022-08-20T04:04:12.904Z,100212.81
2022-08-20T04:09:15.799Z,100216.94
2022-08-20T04:14:19.502Z,100227.50
2022-08-20T04:19:23.054Z,100232.91
2022-08-20T04:24:31.621Z,100247.06
2022-08-20T04:29:35.681Z,100225.00
2022-08-20T04:34:38.775Z,100197.63
2022-08-20T04:39:41.247Z,100189.25
2022-08-20T04:44:43.847Z,100200.22
2022-08-20T04:49:46.194Z,100214.44
2022-08-20T04:54:48.853Z,100210.59
2022-08-20T04:59:53.243Z,100211.38
2022-08-20T05:04:57.929Z,100203.69
2022-08-20T05:10:04.644Z,100198.31
2022-08-20T05:15:07.408Z,100197.56
2022-08-20T05:20:13.324Z,100187.78
2022-08-20T05:25:15.829Z,100191.94
2022-08-20T05:30:19.651Z,100196.09
2022-08-20T05:35:23.317Z,100186.81
2022-08-20T05:40:25.800Z,100184.25
2022-08-20T05:45:28.686Z,100175.13
2022-08-20T05:50:31.224Z,100193.63
2022-08-20T05:55:33.810Z,100200.66
2022-08-20T06:00:37.514Z,100198.44
2022-08-20T06:05:40.123Z,100211.31
2022-08-20T06:10:44.176Z,100234.75
2022-08-20T06:15:46.806Z,100221.94
2022-08-20T06:20:50.593Z,100221.03
2022-08-20T06:25:53.342Z,100218.56
2022-08-20T06:30:55.715Z,100234.75
2022-08-20T06:35:58.181Z,100235.66
2022-08-20T06:41:00.786Z,100233.13
2022-08-20T06:46:03.239Z,100238.84
2022-08-20T06:51:06.917Z,100247.41
2022-08-20T06:56:09.382Z,100261.22
2022-08-20T07:01:13.797Z,100257.91
2022-08-20T07:06:17.042Z,100259.50
2022-08-20T07:11:26.570Z,100252.69
2022-08-20T07:16:30.082Z,100245.47
2022-08-20T07:21:32.895Z,100246.63
2022-08-20T07:26:35.539Z,100258.50
2022-08-20T07:31:56.814Z,100251.41
2022-08-20T07:37:00.634Z,100256.66
2022-08-20T07:42:03.594Z,100253.97
2022-08-20T07:47:06.604Z,100256.09
2022-08-20T07:52:09.052Z,100254.88
2022-08-20T07:57:12.201Z,100260.91
2022-08-20T08:02:14.714Z,100258.88
2022-08-20T08:07:17.727Z,100240.50
2022-08-20T08:12:21.823Z,100232.91
2022-08-20T08:17:24.376Z,100234.19
2022-08-20T08:22:26.854Z,100227.91
2022-08-20T08:27:34.391Z,100228.31
2022-08-20T08:33:03.114Z,100219.19
2022-08-20T08:38:05.749Z,100228.00
2022-08-20T08:43:11.341Z,100232.75
2022-08-20T08:48:18.653Z,100230.78
2022-08-20T08:53:27.565Z,100230.72
2022-08-20T08:58:30.178Z,100233.91
2022-08-20T09:03:34.707Z,100240.63
2022-08-20T09:08:48.065Z,100239.78
2022-08-20T09:13:51.297Z,100248.13
2022-08-20T09:18:53.734Z,100236.53
2022-08-20T09:23:56.217Z,100246.56
2022-08-20T09:28:59.453Z,100212.78
2022-08-20T09:34:02.174Z,100243.19
2022-08-20T09:39:04.646Z,100247.56
2022-08-20T09:44:07.017Z,100246.00
2022-08-20T09:49:09.469Z,100249.59
2022-08-20T09:54:13.242Z,100256.38
2022-08-20T09:59:16.896Z,100239.22
2022-08-20T10:04:19.625Z,100244.78
2022-08-20T10:09:22.069Z,100232.41
2022-08-20T10:14:24.786Z,100228.66
2022-08-20T10:19:28.060Z,100252.38
2022-08-20T10:24:31.184Z,100246.41
2022-08-20T10:29:36.845Z,100252.38
2022-08-20T10:34:41.246Z,100231.13
2022-08-20T10:39:43.869Z,100233.72
2022-08-20T10:44:47.110Z,100221.72
2022-08-20T10:49:51.772Z,100226.13
2022-08-20T10:54:54.805Z,100229.84
2022-08-20T10:59:59.806Z,100236.72
2022-08-20T11:05:02.449Z,100236.94
2022-08-20T11:10:09.323Z,100222.06
2022-08-20T11:15:17.408Z,100210.69
2022-08-20T11:20:21.509Z,100218.56
2022-08-20T11:25:24.668Z,100211.84
2022-08-20T11:30:32.639Z,100218.03
2022-08-20T11:35:48.926Z,100207.19
2022-08-20T11:40:52.215Z,100216.16
2022-08-20T11:45:56.200Z,100211.59
2022-08-20T11:50:58.657Z,100214.13
2022-08-20T11:56:01.351Z,100202.19
2022-08-20T12:01:03.899Z,100188.63
2022-08-20T12:06:06.887Z,100200.75
2022-08-20T12:11:10.160Z,100200.06
2022-08-20T12:16:12.818Z,100193.44
2022-08-20T12:21:15.677Z,100206.88
2022-08-20T12:26:19.011Z,100196.00
2022-08-20T12:31:21.498Z,100193.28
2022-08-20T12:36:24.075Z,100179.81
2022-08-20T12:41:26.548Z,100194.44
2022-08-20T12:46:29.151Z,100181.09
2022-08-20T12:51:31.620Z,100187.84
2022-08-20T12:56:33.969Z,100186.19
2022-08-20T13:01:36.423Z,100186.88
2022-08-20T13:06:38.939Z,100189.72
2022-08-20T13:11:41.792Z,100177.56
2022-08-20T13:16:44.332Z,100183.44
2022-08-20T13:21:46.980Z,100179.63
2022-08-20T13:27:13.010Z,100183.44
2022-08-20T13:32:15.620Z,100170.13
2022-08-20T13:37:23.099Z,100178.22
2022-08-20T13:42:28.337Z,100163.69
2022-08-20T13:47:34.818Z,100173.28
2022-08-20T13:52:38.150Z,100149.75
2022-08-20T13:57:41.370Z,100148.31
2022-08-20T14:02:44.318Z,100158.56
2022-08-20T14:07:47.749Z,100154.63
2022-08-20T14:12:50.319Z,100161.75
2022-08-20T14:17:54.973Z,100131.88
2022-08-20T14:22:58.300Z,100135.22
2022-08-20T14:28:10.375Z,100134.16
2022-08-20T14:33:12.870Z,100139.41
2022-08-20T14:38:15.394Z,100133.00
2022-08-20T14:43:17.957Z,100143.22
2022-08-20T14:48:20.467Z,100147.50
2022-08-20T14:55:49.222Z,100141.56
2022-08-20T15:00:51.725Z,100151.50
2022-08-20T15:05:54.215Z,100147.44
2022-08-20T15:10:56.777Z,100153.13
2022-08-20T15:15:59.260Z,100157.78
2022-08-20T15:21:01.807Z,100166.63
2022-08-20T15:26:05.636Z,100173.66
2022-08-20T15:31:12.461Z,100174.50
2022-08-20T15:36:15.104Z,100178.75
2022-08-20T15:41:17.586Z,100168.63
2022-08-20T15:46:20.095Z,100167.91
2022-08-20T15:51:29.711Z,100174.50
2022-08-20T15:56:59.739Z,100183.88
2022-08-20T16:02:25.785Z,100175.63
2022-08-20T16:07:58.358Z,100185.03
2022-08-20T16:13:03.083Z,100164.59
2022-08-20T16:18:09.432Z,100181.91
2022-08-20T16:23:13.363Z,100189.22
2022-08-20T16:28:28.242Z,100170.72
2022-08-20T16:33:44.549Z,100173.47
2022-08-20T16:39:01.394Z,100164.53
2022-08-20T16:44:38.507Z,100171.13
2022-08-20T16:49:47.070Z,100163.28
2022-08-20T16:54:49.540Z,100163.06
2022-08-20T17:00:19.177Z,100162.69
2022-08-20T17:05:23.588Z,100173.28
2022-08-20T17:10:30.177Z,100171.22
2022-08-20T17:15:35.271Z,100184.47
2022-08-20T17:20:44.959Z,100183.69
2022-08-20T17:26:00.238Z,100182.50
2022-08-20T17:31:03.050Z,100178.06
2022-08-20T17:36:11.416Z,100182.41
2022-08-20T17:41:22.090Z,100171.97
2022-08-20T17:46:25.797Z,100178.41
2022-08-20T17:51:33.346Z,100184.75
2022-08-20T17:56:38.080Z,100185.84
2022-08-20T18:01:40.595Z,100192.19
2022-08-20T18:06:59.322Z,100202.88
2022-08-20T18:12:37.952Z,100215.13
2022-08-20T18:17:58.858Z,100216.63
2022-08-20T18:23:11.244Z,100220.50
2022-08-20T18:28:20.019Z,100216.41
2022-08-20T18:33:48.583Z,100228.69
2022-08-20T18:39:04.557Z,100229.25
2022-08-20T18:44:07.115Z,100214.00
2022-08-20T18:49:13.565Z,100207.84
2022-08-20T18:54:29.564Z,100222.34
2022-08-20T18:59:34.571Z,100212.72
2022-08-20T19:04:38.149Z,100203.66
2022-08-20T19:09:48.446Z,100210.47
2022-08-20T19:15:13.231Z,100213.84
2022-08-20T19:20:19.523Z,100224.53
2022-08-20T19:25:31.018Z,100229.84
2022-08-20T19:30:39.929Z,100224.09
2022-08-20T19:35:42.611Z,100212.22
2022-08-20T19:40:46.260Z,100192.75
2022-08-20T19:45:51.793Z,100198.59
2022-08-20T19:51:15.165Z,100193.38
2022-08-20T19:56:21.121Z,100210.78
2022-08-20T20:01:23.701Z,100196.00
2022-08-20T20:06:27.162Z,100195.22
2022-08-20T20:11:36.015Z,100213.81
2022-08-20T20:16:39.919Z,100236.88
2022-08-20T20:21:43.650Z,100265.97
2022-08-20T20:26:48.099Z,100232.69
2022-08-20T20:31:56.375Z,100252.06
2022-08-20T20:37:13.324Z,100253.03
2022-08-20T20:42:26.786Z,100243.53
2022-08-20T20:47:32.479Z,100228.00
2022-08-20T20:52:49.196Z,100215.75
2022-08-20T20:57:52.232Z,100208.56
2022-08-20T21:02:55.349Z,100198.84
2022-08-20T21:08:00.808Z,100205.78
2022-08-20T21:13:04.851Z,100196.91
2022-08-20T21:18:09.217Z,100219.72
2022-08-20T21:23:11.649Z,100243.41
2022-08-20T21:28:14.120Z,100223.09
2022-08-20T21:33:16.497Z,100209.38
2022-08-20T21:38:19.236Z,100236.31
2022-08-20T21:43:21.783Z,100244.84
2022-08-20T21:48:25.793Z,100236.00
2022-08-20T21:53:28.132Z,100216.03
2022-08-20T21:58:30.721Z,100213.91
2022-08-20T22:03:38.524Z,100224.00
2022-08-20T22:08:41.660Z,100238.84
2022-08-20T22:13:44.883Z,100249.78
2022-08-20T22:18:48.440Z,100266.47
2022-08-20T22:23:51.833Z,100266.47
2022-08-20T22:28:54.366Z,100274.16
2022-08-20T22:33:58.176Z,100263.88
2022-08-20T22:39:02.407Z,100267.34
2022-08-20T22:44:05.625Z,100275.13
2022-08-20T22:49:09.775Z,100275.81
2022-08-20T22:54:13.665Z,100292.34
2022-08-20T22:59:16.405Z,100286.13
2022-08-20T23:04:27.402Z,100276.03
2022-08-20T23:09:30.563Z,100289.03
2022-08-20T23:14:33.815Z,100292.16
2022-08-20T23:19:37.762Z,100305.81
2022-08-20T23:24:40.635Z,100281.25
2022-08-20T23:29:43.448Z,100282.50
2022-08-20T23:34:46.051Z,100278.91
2022-08-20T23:39:50.096Z,100278.88
2022-08-20T23:44:52.610Z,100277.88
2022-08-20T23:49:55.058Z,100261.25
2022-08-20T23:54:57.428Z,100239.66
2022-08-20T23:59:59.827Z,100268.88
